createdAt,value
2022-12-03T00:01:18.567Z,100618.69
2022-12-03T00:03:46.670Z,100622.16
2022-12-03T00:06:14.950Z,100612.56
2022-12-03T00:08:42.923Z,100611.63
2022-12-03T00:11:14.021Z,100612.50
2022-12-03T00:13:45.387Z,100615.13
2022-12-03T00:16:13.901Z,100605.47
2022-12-03T00:18:45.661Z,100616.03
2022-12-03T00:21:16.327Z,100614.28
2022-12-03T00:23:44.657Z,100614.34
2022-12-03T00:26:15.020Z,100612.56
2022-12-03T00:28:43.297Z,100615.22
2022-12-03T00:31:11.322Z,100610.81
2022-12-03T00:33:39.549Z,100609.91
2022-12-03T00:36:10.320Z,100605.56
2022-12-03T00:38:39.015Z,100607.34
2022-12-03T00:41:07.034Z,100596.84
2022-12-03T00:43:37.145Z,100602.97
2022-12-03T00:46:05.161Z,100606.47
2022-12-03T00:48:33.162Z,100599.44
2022-12-03T00:51:01.157Z,100597.59
2022-12-03T00:53:30.756Z,100592.34
2022-12-03T00:55:58.755Z,100601.06
2022-12-03T00:58:29.421Z,100599.34
2022-12-03T01:00:57.490Z,100598.44
2022-12-03T01:03:25.556Z,100599.38
2022-12-03T01:05:53.715Z,100600.28
2022-12-03T01:08:21.879Z,100601.97
2022-12-03T01:10:53.640Z,100603.69
2022-12-03T01:13:21.905Z,100606.34
2022-12-03T01:15:49.981Z,100600.19
2022-12-03T01:18:18.292Z,100602.81
2022-12-03T01:23:14.495Z,100605.31
2022-12-03T01:25:42.504Z,100605.31
2022-12-03T01:28:12.715Z,100605.31
2022-12-03T01:30:56.913Z,100604.41
2022-12-03T01:33:25.127Z,100610.56
2022-12-03T01:35:53.225Z,100613.19
2022-12-03T01:38:22.942Z,100601.78
2022-12-03T01:40:54.976Z,100606.16
2022-12-03T01:43:23.306Z,100605.25
2022-12-03T01:45:51.293Z,100610.59
2022-12-03T01:48:19.640Z,100603.56
2022-12-03T01:50:47.968Z,100614.13
2022-12-03T01:53:21.463Z,100597.34
2022-12-03T01:55:53.174Z,100612.38
2022-12-03T01:58:26.450Z,100615.88
2022-12-03T02:00:55.043Z,100622.88
2022-12-03T02:03:25.235Z,100619.44
2022-12-03T02:05:56.816Z,100620.34
2022-12-03T02:08:30.028Z,100615.09
2022-12-03T02:11:03.520Z,100616.03
2022-12-03T02:13:47.726Z,100621.28
2022-12-03T02:16:15.877Z,100623.06
2022-12-03T02:18:44.643Z,100625.69
2022-12-03T02:21:20.143Z,100619.59
2022-12-03T02:24:01.895Z,100616.91
2022-12-03T02:26:33.550Z,100617.00
2022-12-03T02:29:02.512Z,100618.78
2022-12-03T02:31:30.883Z,100621.38
2022-12-03T02:33:59.032Z,100616.16
2022-12-03T02:36:29.883Z,100624.00
2022-12-03T02:38:58.003Z,100616.16
2022-12-03T02:41:46.669Z,100609.13
2022-12-03T02:44:16.616Z,100613.44
2022-12-03T02:46:47.374Z,100613.53
2022-12-03T02:49:15.733Z,100610.91
2022-12-03T02:51:43.700Z,100611.78
2022-12-03T02:54:12.252Z,100609.16
2022-12-03T02:56:43.161Z,100617.03
2022-12-03T02:59:17.400Z,100611.84
2022-12-03T03:01:45.715Z,100608.31
2022-12-03T03:04:14.029Z,100620.63
2022-12-03T03:06:42.017Z,100610.97
2022-12-03T03:09:10.185Z,100615.34
2022-12-03T03:11:38.344Z,100617.97
2022-12-03T03:14:08.694Z,100608.41
2022-12-03T03:16:40.693Z,100608.34
2022-12-03T03:19:08.846Z,100612.72
2022-12-03T03:21:40.100Z,100608.41
2022-12-03T03:24:08.996Z,100611.91
2022-12-03T03:26:37.241Z,100616.25
2022-12-03T03:29:08.225Z,100615.38
2022-12-03T03:31:36.510Z,100618.88
2022-12-03T03:34:06.461Z,100610.94
2022-12-03T03:36:37.179Z,100608.34
2022-12-03T03:39:06.543Z,100614.50
2022-12-03T03:41:37.537Z,100610.09
2022-12-03T03:44:08.845Z,100581.00
2022-12-03T03:46:38.451Z,100603.06
2022-12-03T03:49:11.678Z,100604.00
2022-12-03T03:51:40.591Z,100600.50
2022-12-03T03:54:11.294Z,100605.78
2022-12-03T03:56:42.466Z,100593.56
2022-12-03T03:59:10.741Z,100611.13
2022-12-03T04:01:39.175Z,100604.22
2022-12-03T04:04:12.853Z,100584.00
2022-12-03T04:06:44.399Z,100595.50
2022-12-03T04:09:12.637Z,100581.34
2022-12-03T04:11:58.148Z,100603.41
2022-12-03T04:14:28.404Z,100599.00
2022-12-03T04:16:56.466Z,100595.50
2022-12-03T04:19:24.843Z,100601.66
2022-12-03T04:22:14.266Z,100595.53
2022-12-03T04:24:46.979Z,100593.75
2022-12-03T04:27:32.821Z,100590.31
2022-12-03T04:30:00.851Z,100586.75
2022-12-03T04:32:46.871Z,100589.34
2022-12-03T04:35:38.526Z,100585.88
2022-12-03T04:38:10.305Z,100592.88
2022-12-03T04:40:55.699Z,100586.75
2022-12-03T04:43:23.683Z,100592.88
2022-12-03T04:45:52.044Z,100594.59
2022-12-03T04:48:22.492Z,100590.28
2022-12-03T04:50:50.731Z,100581.47
2022-12-03T04:53:20.079Z,100578.75
2022-12-03T04:55:48.385Z,100587.59
2022-12-03T04:58:19.178Z,100582.31
2022-12-03T05:00:47.179Z,100596.38
2022-12-03T05:03:15.258Z,100589.34
2022-12-03T05:05:44.248Z,100588.50
2022-12-03T05:08:14.597Z,100582.34
2022-12-03T05:10:44.009Z,100583.28
2022-12-03T05:13:12.317Z,100582.38
2022-12-03T05:15:42.405Z,100570.13
2022-12-03T05:18:10.376Z,100584.09
2022-12-03T05:20:51.334Z,100582.38
2022-12-03T05:23:21.803Z,100584.13
2022-12-03T05:25:51.324Z,100578.84
2022-12-03T05:28:22.242Z,100578.03
2022-12-03T05:30:52.684Z,100580.66
2022-12-03T05:33:21.096Z,100577.13
2022-12-03T05:35:51.079Z,100572.75
2022-12-03T05:38:19.240Z,100534.00
2022-12-03T05:40:47.337Z,100567.50
2022-12-03T05:43:15.886Z,100571.00
2022-12-03T05:45:45.398Z,100548.09
2022-12-03T05:48:15.504Z,100565.72
2022-12-03T05:50:45.789Z,100561.28
2022-12-03T05:53:17.513Z,100563.06
2022-12-03T05:55:45.653Z,100563.91
2022-12-03T05:58:13.775Z,100560.44
2022-12-03T06:00:45.596Z,100567.47
2022-12-03T06:03:16.004Z,100563.06
2022-12-03T06:05:44.032Z,100565.72
2022-12-03T06:08:12.078Z,100567.47
2022-12-03T06:10:40.096Z,100574.41
2022-12-03T06:13:08.337Z,100569.19
2022-12-03T06:15:43.291Z,100565.69
2022-12-03T06:18:15.430Z,100570.06
2022-12-03T06:24:28.135Z,100552.50
2022-12-03T06:26:56.133Z,100561.22
2022-12-03T06:29:24.337Z,100557.66
2022-12-03T06:31:52.507Z,100559.44
2022-12-03T06:34:20.625Z,100550.69
2022-12-03T06:36:50.010Z,100558.59
2022-12-03T06:39:22.736Z,100548.09
2022-12-03T06:41:52.271Z,100557.72
2022-12-03T06:44:22.597Z,100543.66
2022-12-03T06:46:53.181Z,100533.09
2022-12-03T06:49:21.208Z,100542.69
2022-12-03T06:51:49.204Z,100541.75
2022-12-03T06:54:17.254Z,100544.34
2022-12-03T06:56:45.824Z,100546.91
2022-12-03T06:59:15.891Z,100546.91
2022-12-03T07:01:44.269Z,100546.84
2022-12-03T07:04:12.338Z,100545.94
2022-12-03T07:06:40.381Z,100556.41
2022-12-03T07:09:08.471Z,100563.41
2022-12-03T07:11:42.208Z,100566.91
2022-12-03T07:14:11.689Z,100573.03
2022-12-03T07:16:44.460Z,100576.56
2022-12-03T07:19:15.812Z,100584.47
2022-12-03T07:21:46.727Z,100582.69
2022-12-03T07:24:14.881Z,100591.50
2022-12-03T07:26:43.101Z,100589.78
2022-12-03T07:29:11.065Z,100597.69
2022-12-03T07:31:39.441Z,100596.00
2022-12-03T07:34:09.083Z,100597.78
2022-12-03T07:36:39.891Z,100598.69
2022-12-03T07:39:07.909Z,100595.25
2022-12-03T07:41:38.386Z,100589.16
2022-12-03T07:44:10.800Z,100581.34
2022-12-03T07:46:45.067Z,100584.91
2022-12-03T07:49:14.626Z,100576.97
2022-12-03T07:51:42.903Z,100581.47
2022-12-03T07:54:11.039Z,100580.59
2022-12-03T07:56:42.488Z,100575.50
2022-12-03T07:59:10.884Z,100577.53
2022-12-03T08:01:39.221Z,100582.78
2022-12-03T08:04:07.460Z,100581.84
2022-12-03T08:06:36.789Z,100578.31
2022-12-03T08:09:05.121Z,100590.53
2022-12-03T08:11:34.110Z,100587.88
2022-12-03T08:14:02.609Z,100577.34
2022-12-03T08:16:31.790Z,100589.59
2022-12-03T08:19:00.181Z,100589.59
2022-12-03T08:21:36.168Z,100589.69
2022-12-03T08:24:23.621Z,100594.88
2022-12-03T08:26:51.802Z,100582.66
2022-12-03T08:29:21.092Z,100585.28
2022-12-03T08:31:52.033Z,100573.94
2022-12-03T08:34:22.656Z,100577.59
2022-12-03T08:36:57.124Z,100573.41
2022-12-03T08:39:33.226Z,100574.44
2022-12-03T08:42:30.712Z,100573.59
2022-12-03T08:45:39.322Z,100546.28
2022-12-03T08:48:32.490Z,100563.91
2022-12-03T08:51:04.630Z,100576.38
2022-12-03T08:53:36.527Z,100576.41
2022-12-03T08:56:13.589Z,100581.63
2022-12-03T08:58:43.376Z,100584.19
2022-12-03T09:01:31.522Z,100582.47
2022-12-03T09:04:15.362Z,100583.31
2022-12-03T09:06:46.373Z,100578.81
2022-12-03T09:09:16.087Z,100585.91
2022-12-03T09:11:44.813Z,100578.97
2022-12-03T09:14:18.952Z,100578.16
2022-12-03T09:16:47.811Z,100564.13
2022-12-03T09:19:16.354Z,100558.03
2022-12-03T09:21:48.081Z,100556.28
2022-12-03T09:24:17.579Z,100561.56
2022-12-03T09:26:45.701Z,100556.25
2022-12-03T09:29:13.700Z,100528.00
2022-12-03T09:31:42.338Z,100564.13
2022-12-03T09:34:12.262Z,100572.06
2022-12-03T09:36:42.653Z,100571.13
2022-12-03T09:39:10.976Z,100575.56
2022-12-03T09:41:43.766Z,100568.56
2022-12-03T09:44:17.807Z,100566.84
2022-12-03T09:46:47.465Z,100565.09
2022-12-03T09:49:20.815Z,100559.84
2022-12-03T09:51:54.907Z,100557.22
2022-12-03T09:54:25.202Z,100557.22
2022-12-03T09:56:55.290Z,100560.78
2022-12-03T09:59:24.772Z,100559.00
2022-12-03T10:01:57.714Z,100559.06
2022-12-03T10:04:25.825Z,100551.13
2022-12-03T10:06:53.881Z,100552.91
2022-12-03T10:09:26.235Z,100548.47
2022-12-03T10:11:56.311Z,100552.91
2022-12-03T10:14:27.261Z,100541.50
2022-12-03T10:16:55.560Z,100541.50
2022-12-03T10:19:26.745Z,100539.72
2022-12-03T10:21:55.752Z,100537.09
2022-12-03T10:24:26.785Z,100531.84
2022-12-03T10:26:58.837Z,100533.59
2022-12-03T10:29:33.689Z,100531.84
2022-12-03T10:32:04.650Z,100522.16
2022-12-03T10:34:39.960Z,100518.63
2022-12-03T10:37:15.868Z,100491.34
2022-12-03T10:40:00.454Z,100509.75
2022-12-03T10:42:34.801Z,100505.06
2022-12-03T10:45:20.035Z,100507.72
2022-12-03T10:48:05.198Z,100492.56
2022-12-03T10:50:34.652Z,100491.00
2022-12-03T10:53:03.262Z,100491.81
2022-12-03T10:55:38.804Z,100501.38
2022-12-03T10:58:19.080Z,100490.66
2022-12-03T11:00:50.201Z,100476.34
2022-12-03T11:03:20.964Z,100493.19
2022-12-03T11:05:50.086Z,100488.13
2022-12-03T11:08:21.171Z,100472.19
2022-12-03T11:10:57.998Z,100475.59
2022-12-03T11:13:45.741Z,100469.75
2022-12-03T11:16:15.121Z,100466.13
2022-12-03T11:19:03.084Z,100461.50
2022-12-03T11:21:32.014Z,100453.69
2022-12-03T11:25:52.574Z,100459.16
2022-12-03T11:28:36.012Z,100449.03
2022-12-03T11:31:09.842Z,100454.59
2022-12-03T11:33:41.616Z,100461.91
2022-12-03T11:36:12.567Z,100454.06
2022-12-03T11:38:55.251Z,100447.16
2022-12-03T11:41:28.023Z,100451.63
2022-12-03T11:44:29.293Z,100449.09
2022-12-03T11:47:00.436Z,100460.53
2022-12-03T11:49:48.132Z,100451.75
2022-12-03T11:52:25.644Z,100442.94
2022-12-03T11:54:57.623Z,100431.44
2022-12-03T11:57:36.819Z,100436.72
2022-12-03T12:00:21.907Z,100422.63
2022-12-03T12:02:51.384Z,100429.75
2022-12-03T12:05:23.904Z,100420.94
2022-12-03T12:07:52.420Z,100424.41
2022-12-03T12:10:41.314Z,100420.00
2022-12-03T12:13:48.855Z,100405.97
2022-12-03T12:16:55.988Z,100424.41
2022-12-03T12:19:39.885Z,100415.59
2022-12-03T12:22:21.319Z,100418.25
2022-12-03T12:24:53.668Z,100410.34
2022-12-03T12:27:23.570Z,100407.66
2022-12-03T12:29:58.097Z,100408.53
2022-12-03T12:32:28.556Z,100403.25
2022-12-03T12:35:01.801Z,100393.56
2022-12-03T12:37:36.257Z,100392.75
2022-12-03T12:40:13.781Z,100386.56
2022-12-03T12:42:50.970Z,100385.63
2022-12-03T12:45:22.487Z,100380.44
2022-12-03T12:48:03.157Z,100382.13
2022-12-03T12:50:31.907Z,100376.06
2022-12-03T12:53:09.646Z,100380.47
2022-12-03T12:55:38.163Z,100369.09
2022-12-03T12:58:14.775Z,100382.25
2022-12-03T13:00:51.911Z,100376.97
2022-12-03T13:03:25.452Z,100384.00
2022-12-03T13:05:57.914Z,100373.47
2022-12-03T13:08:28.850Z,100380.53
2022-12-03T13:10:59.019Z,100379.69
2022-12-03T13:13:31.844Z,100391.16
2022-12-03T13:16:07.298Z,100388.50
2022-12-03T13:18:45.090Z,100385.84
2022-12-03T13:21:22.942Z,100388.50
2022-12-03T13:23:53.780Z,100383.25
2022-12-03T13:26:36.182Z,100370.94
2022-12-03T13:29:14.625Z,100373.59
2022-12-03T13:31:50.292Z,100371.84
2022-12-03T13:34:21.884Z,100372.72
2022-12-03T13:36:58.161Z,100365.69
2022-12-03T13:39:32.673Z,100363.03
2022-12-03T13:42:31.205Z,100371.84
2022-12-03T13:44:59.290Z,100365.66
2022-12-03T13:47:28.900Z,100368.31
2022-12-03T13:49:59.083Z,100357.75
2022-12-03T13:52:27.802Z,100368.28
2022-12-03T13:54:58.137Z,100365.66
2022-12-03T13:57:30.559Z,100353.34
2022-12-03T13:59:58.674Z,100356.03
2022-12-03T14:02:30.446Z,100362.19
2022-12-03T14:05:00.396Z,100354.28
2022-12-03T14:07:29.208Z,100349.88
2022-12-03T14:09:57.698Z,100353.38
2022-12-03T14:12:33.464Z,100355.16
2022-12-03T14:15:02.292Z,100354.25
2022-12-03T14:17:36.382Z,100348.97
2022-12-03T14:20:05.517Z,100327.91
2022-12-03T14:22:33.580Z,100353.38
2022-12-03T14:25:01.546Z,100350.78
2022-12-03T14:27:32.191Z,100347.28
2022-12-03T14:30:00.400Z,100336.72
2022-12-03T14:32:28.435Z,100351.66
2022-12-03T14:34:58.062Z,100352.53
2022-12-03T14:37:26.109Z,100357.81
2022-12-03T14:39:54.377Z,100354.28
2022-12-03T14:42:22.692Z,100348.16
2022-12-03T14:44:52.074Z,100353.41
2022-12-03T14:47:22.548Z,100356.06
2022-12-03T14:49:51.732Z,100360.47
2022-12-03T14:52:23.865Z,100365.72
2022-12-03T14:54:51.911Z,100367.50
2022-12-03T14:57:19.910Z,100364.84
2022-12-03T14:59:48.081Z,100360.44
2022-12-03T15:02:18.575Z,100362.22
2022-12-03T15:04:46.642Z,100345.53
2022-12-03T15:07:14.588Z,100370.13
2022-12-03T15:09:43.976Z,100360.47
2022-12-03T15:12:11.996Z,100364.00
2022-12-03T15:14:40.076Z,100370.09
2022-12-03T15:17:08.240Z,100363.09
2022-12-03T15:19:36.183Z,100365.75
2022-12-03T15:22:04.285Z,100358.69
2022-12-03T15:24:32.491Z,100371.88
2022-12-03T15:27:01.874Z,100371.88
2022-12-03T15:29:30.350Z,100363.09
2022-12-03T15:31:59.326Z,100373.63
2022-12-03T15:34:27.512Z,100361.34
2022-12-03T15:36:55.804Z,100371.88
2022-12-03T15:39:23.791Z,100365.75
2022-12-03T15:41:52.249Z,100373.63
2022-12-03T15:44:24.019Z,100366.59
2022-12-03T15:46:52.269Z,100359.56
2022-12-03T15:49:20.211Z,100373.66
2022-12-03T15:51:48.119Z,100368.38
2022-12-03T15:54:16.295Z,100361.34
2022-12-03T15:56:44.236Z,100364.84
2022-12-03T15:59:21.600Z,100358.72
2022-12-03T16:01:53.786Z,100363.09
2022-12-03T16:04:21.896Z,100363.09
2022-12-03T16:06:50.260Z,100361.34
2022-12-03T16:09:22.292Z,100359.56
2022-12-03T16:11:55.917Z,100361.34
2022-12-03T16:14:24.008Z,100349.94
2022-12-03T16:16:53.327Z,100344.63
2022-12-03T16:19:21.347Z,100357.81
2022-12-03T16:21:49.446Z,100323.56
2022-12-03T16:26:30.586Z,100351.69
2022-12-03T16:29:01.596Z,100361.34
2022-12-03T16:31:33.345Z,100356.94
2022-12-03T16:34:01.522Z,100363.94
2022-12-03T16:36:31.580Z,100364.84
2022-12-03T16:38:59.623Z,100353.44
2022-12-03T16:41:27.980Z,100353.44
2022-12-03T16:44:02.063Z,100358.72
2022-12-03T16:46:30.207Z,100353.44
2022-12-03T16:48:59.166Z,100348.16
2022-12-03T16:51:30.366Z,100349.91
2022-12-03T16:53:58.433Z,100349.91
2022-12-03T16:56:26.392Z,100348.16
2022-12-03T16:58:54.457Z,100352.53
2022-12-03T17:01:26.860Z,100348.16
2022-12-03T17:03:54.987Z,100349.91
2022-12-03T17:06:23.083Z,100337.63
2022-12-03T17:08:51.198Z,100340.25
2022-12-03T17:11:21.621Z,100338.47
2022-12-03T17:13:49.603Z,100342.00
2022-12-03T17:16:19.783Z,100336.72
2022-12-03T17:18:50.347Z,100331.47
2022-12-03T17:21:22.783Z,100339.34
2022-12-03T17:23:51.195Z,100334.97
2022-12-03T17:26:19.796Z,100337.59
2022-12-03T17:28:51.480Z,100338.47
2022-12-03T17:31:19.576Z,100335.88
2022-12-03T17:33:47.701Z,100333.22
2022-12-03T17:36:20.125Z,100333.22
2022-12-03T17:38:48.232Z,100330.59
2022-12-03T17:41:16.417Z,100332.34
2022-12-03T17:43:44.807Z,100329.72
2022-12-03T17:46:12.872Z,100335.84
2022-12-03T17:48:43.279Z,100330.59
2022-12-03T17:51:11.300Z,100329.69
2022-12-03T17:53:40.736Z,100323.56
2022-12-03T17:56:11.748Z,100302.50
2022-12-03T17:58:40.779Z,100325.31
2022-12-03T18:01:11.014Z,100324.44
2022-12-03T18:03:39.417Z,100323.56
2022-12-03T18:06:08.062Z,100323.56
2022-12-03T18:08:40.457Z,100320.91
2022-12-03T18:11:08.605Z,100320.94
2022-12-03T18:13:39.677Z,100321.81
2022-12-03T18:16:08.219Z,100315.66
2022-12-03T18:18:36.441Z,100320.06
2022-12-03T18:21:04.634Z,100320.06
2022-12-03T18:23:33.675Z,100318.28
2022-12-03T18:26:03.378Z,100312.16
2022-12-03T18:28:31.777Z,100306.00
2022-12-03T18:31:02.295Z,100307.75
2022-12-03T18:33:30.396Z,100309.50
2022-12-03T18:35:59.237Z,100306.00
2022-12-03T18:38:30.798Z,100302.50
2022-12-03T18:40:58.882Z,100314.78
2022-12-03T18:43:30.989Z,100309.50
2022-12-03T18:46:01.123Z,100311.25
2022-12-03T18:48:29.195Z,100311.28
2022-12-03T18:50:57.596Z,100309.53
2022-12-03T18:53:25.569Z,100316.53
2022-12-03T18:55:53.857Z,100311.28
2022-12-03T18:58:22.123Z,100308.66
2022-12-03T19:00:51.501Z,100299.84
2022-12-03T19:03:22.418Z,100304.25
2022-12-03T19:05:50.590Z,100302.50
2022-12-03T19:08:19.295Z,100306.00
2022-12-03T19:10:57.357Z,100301.63
2022-12-03T19:13:26.249Z,100307.78
2022-12-03T19:15:55.906Z,100301.63
2022-12-03T19:18:25.058Z,100304.25
2022-12-03T19:20:55.729Z,100303.38
2022-12-03T19:23:23.948Z,100298.09
2022-12-03T19:25:58.283Z,100300.75
2022-12-03T19:28:26.622Z,100306.88
2022-12-03T19:31:00.369Z,100306.88
2022-12-03T19:33:29.770Z,100303.38
2022-12-03T19:36:01.194Z,100303.38
2022-12-03T19:38:31.789Z,100299.00
2022-12-03T19:41:01.300Z,100293.69
2022-12-03T19:43:31.680Z,100291.06
2022-12-03T19:46:05.033Z,100301.59
2022-12-03T19:48:37.900Z,100299.88
2022-12-03T19:51:32.847Z,100299.88
2022-12-03T19:53:56.307Z,100298.09
2022-12-03T19:56:24.333Z,100296.34
2022-12-03T19:58:55.759Z,100299.00
2022-12-03T20:01:27.109Z,100301.59
2022-12-03T20:03:57.248Z,100301.59
2022-12-03T20:06:27.728Z,100274.41
2022-12-03T20:08:57.486Z,100297.22
2022-12-03T20:11:27.923Z,100294.59
2022-12-03T20:13:58.388Z,100299.88
2022-12-03T20:16:28.303Z,100298.09
2022-12-03T20:18:58.375Z,100290.22
2022-12-03T20:21:31.567Z,100291.97
2022-12-03T20:23:59.879Z,100292.84
2022-12-03T20:26:28.907Z,100293.69
2022-12-03T20:28:58.707Z,100295.47
2022-12-03T20:31:30.541Z,100298.97
2022-12-03T20:34:01.210Z,100300.75
2022-12-03T20:36:32.947Z,100291.06
2022-12-03T20:39:02.816Z,100289.31
2022-12-03T20:41:31.328Z,100277.91
2022-12-03T20:44:02.349Z,100281.44
2022-12-03T20:46:32.906Z,100277.94
2022-12-03T20:49:01.512Z,100272.66
2022-12-03T20:51:31.523Z,100275.28
2022-12-03T20:54:03.100Z,100267.41
2022-12-03T20:56:35.642Z,100274.41
2022-12-03T20:59:06.755Z,100280.56
2022-12-03T21:01:38.306Z,100282.31
2022-12-03T21:04:08.405Z,100277.03
2022-12-03T21:06:37.761Z,100273.53
2022-12-03T21:09:07.589Z,100264.78
2022-12-03T21:11:39.156Z,100276.16
2022-12-03T21:14:07.261Z,100277.91
2022-12-03T21:17:07.107Z,100277.91
2022-12-03T21:19:29.672Z,100270.91
2022-12-03T21:21:58.046Z,100271.78
2022-12-03T21:27:21.629Z,100270.00
2022-12-03T21:29:52.961Z,100272.66
2022-12-03T21:32:21.503Z,100263.88
2022-12-03T21:34:51.748Z,100262.13
2022-12-03T21:37:23.066Z,100261.25
2022-12-03T21:39:51.096Z,100258.59
2022-12-03T21:42:35.953Z,100260.34
2022-12-03T21:45:06.453Z,100258.59
2022-12-03T21:47:37.201Z,100257.72
2022-12-03T21:50:07.313Z,100261.25
2022-12-03T21:52:35.481Z,100256.00
2022-12-03T21:55:03.467Z,100256.84
2022-12-03T21:57:32.920Z,100257.75
2022-12-03T22:00:00.911Z,100264.75
2022-12-03T22:02:28.919Z,100256.84
2022-12-03T22:04:59.392Z,100263.00
2022-12-03T22:07:29.812Z,100263.00
2022-12-03T22:09:57.858Z,100265.63
2022-12-03T22:12:26.046Z,100267.38
2022-12-03T22:14:57.126Z,100263.00
2022-12-03T22:17:26.961Z,100271.78
2022-12-03T22:19:55.702Z,100251.56
2022-12-03T22:22:23.801Z,100269.13
2022-12-03T22:24:51.951Z,100266.50
2022-12-03T22:27:20.331Z,100274.41
2022-12-03T22:29:48.204Z,100261.25
2022-12-03T22:32:17.625Z,100259.47
2022-12-03T22:34:45.619Z,100266.50
2022-12-03T22:37:16.029Z,100259.47
2022-12-03T22:39:47.081Z,100255.97
2022-12-03T22:42:15.313Z,100255.09
2022-12-03T22:44:45.416Z,100255.97
2022-12-03T22:47:13.734Z,100252.47
2022-12-03T22:49:43.117Z,100244.56
2022-12-03T22:52:11.044Z,100257.72
2022-12-03T22:54:39.432Z,100255.13
2022-12-03T22:57:07.448Z,100254.19
2022-12-03T22:59:35.372Z,100249.81
2022-12-03T23:02:03.341Z,100246.34
2022-12-03T23:04:31.377Z,100245.44
2022-12-03T23:07:00.692Z,100243.69
2022-12-03T23:09:29.120Z,100242.81
2022-12-03T23:11:57.103Z,100235.78
2022-12-03T23:14:25.098Z,100227.00
2022-12-03T23:16:53.189Z,100227.88
2022-12-03T23:19:21.681Z,100216.47
2022-12-03T23:21:49.700Z,100180.53
2022-12-03T23:24:19.164Z,100213.84
2022-12-03T23:26:47.172Z,100203.31
2022-12-03T23:29:15.290Z,100206.81
2022-12-03T23:31:43.722Z,100199.81
2022-12-03T23:34:14.345Z,100198.06
2022-12-03T23:36:44.921Z,100202.44
2022-12-03T23:39:13.242Z,100212.97
2022-12-03T23:41:42.878Z,100220.88
2022-12-03T23:44:11.030Z,100233.16
2022-12-03T23:46:40.633Z,100227.00
2022-12-03T23:49:08.852Z,100221.72
2022-12-03T23:51:37.093Z,100222.63
2022-12-03T23:54:05.548Z,100212.97
2022-12-03T23:56:33.517Z,100208.59
2022-12-03T23:59:02.947Z,100204.22
